Terminal Aerodrome Forecast
Issued by NWS

Home | Current Version | Previous Version | Text Only | Print | Product List | Glossary On
Versions: 1 2 3 4 5 6 7 8 9 10 11 12 13 14 15 16 17 18 19 20
000
FTUS42 KILM 261124
TAFCRE
TAF
KCRE 261124Z 2612/2712 21009KT P6SM VCSH SCT012 SCT030 SCT250
      TEMPO 2613/2617 SCT015 BKN025
     FM261700 19013KT P6SM SCT040 SCT070 SCT200
     FM270600 21004KT P6SM SCT015 SCT080 BKN150
      TEMPO 2709/2712 4SM BR BKN010=

USA.gov is the U.S. government's official web portal to all federal, state and local government web resources and services.